createdAt,value
2022-09-15T00:00:10.896Z,537
2022-09-15T00:01:23.404Z,538
2022-09-15T00:02:27.016Z,534
2022-09-15T00:03:39.559Z,534
2022-09-15T00:04:52.884Z,532
2022-09-15T00:05:55.397Z,531
2022-09-15T00:07:08.868Z,531
2022-09-15T00:08:21.367Z,527
2022-09-15T00:09:24.912Z,528
2022-09-15T00:10:37.469Z,526
2022-09-15T00:11:50.879Z,527
2022-09-15T00:12:53.401Z,528
2022-09-15T00:14:06.867Z,527
2022-09-15T00:15:19.367Z,529
2022-09-15T00:16:22.938Z,528
2022-09-15T00:17:35.471Z,528
2022-09-15T00:18:48.903Z,528
2022-09-15T00:20:01.329Z,526
2022-09-15T00:21:04.889Z,526
2022-09-15T00:22:17.571Z,524
2022-09-15T00:23:31.387Z,525
2022-09-15T00:24:33.979Z,526
2022-09-15T00:25:47.414Z,526
2022-09-15T00:26:59.889Z,526
2022-09-15T00:28:03.361Z,525
2022-09-15T00:29:15.876Z,524
2022-09-15T00:30:29.417Z,524
2022-09-15T00:31:31.985Z,519
2022-09-15T00:32:45.514Z,518
2022-09-15T00:33:57.811Z,518
2022-09-15T00:35:10.993Z,517
2022-09-15T00:36:13.535Z,514
2022-09-15T00:37:26.902Z,511
2022-09-15T00:38:39.356Z,509
2022-09-15T00:39:42.889Z,509
2022-09-15T00:40:55.363Z,511
2022-09-15T00:42:08.383Z,509
2022-09-15T00:43:20.827Z,509
2022-09-15T00:44:24.467Z,511
2022-09-15T00:45:36.936Z,510
2022-09-15T00:47:04.315Z,513
2022-09-15T00:48:01.047Z,512
2022-09-15T00:49:03.635Z,510
2022-09-15T00:50:16.896Z,508
2022-09-15T00:51:29.365Z,507
2022-09-15T00:52:33.026Z,507
2022-09-15T00:53:45.552Z,506
2022-09-15T00:54:59.014Z,508
2022-09-15T00:56:11.568Z,507
2022-09-15T00:57:14.872Z,506
2022-09-15T00:58:27.358Z,506
2022-09-15T00:59:40.384Z,504
2022-09-15T01:00:43.056Z,502
2022-09-15T01:01:56.449Z,505
2022-09-15T01:03:08.943Z,504
2022-09-15T01:04:22.398Z,503
2022-09-15T01:05:24.918Z,504
2022-09-15T01:06:38.385Z,505
2022-09-15T01:07:50.887Z,503
2022-09-15T01:08:54.377Z,504
2022-09-15T01:10:06.856Z,506
2022-09-15T01:11:20.418Z,503
2022-09-15T01:12:23.020Z,502
2022-09-15T01:13:36.373Z,503
2022-09-15T01:14:48.844Z,503
2022-09-15T01:16:01.986Z,504
2022-09-15T01:17:04.652Z,505
2022-09-15T01:18:17.890Z,502
2022-09-15T01:19:30.361Z,504
2022-09-15T01:20:33.927Z,504
2022-09-15T01:21:46.407Z,503
2022-09-15T01:22:59.873Z,503
2022-09-15T01:24:02.517Z,504
2022-09-15T01:25:15.902Z,502
2022-09-15T01:26:28.363Z,504
2022-09-15T01:27:43.006Z,506
2022-09-15T01:28:45.832Z,504
2022-09-15T01:29:58.917Z,504
2022-09-15T01:31:11.401Z,505
2022-09-15T01:32:14.917Z,505
2022-09-15T01:33:27.413Z,503
2022-09-15T01:34:40.907Z,503
2022-09-15T01:35:43.471Z,506
2022-09-15T01:36:56.896Z,509
2022-09-15T01:38:09.366Z,506
2022-09-15T01:39:22.908Z,504
2022-09-15T01:40:25.524Z,506
2022-09-15T01:41:38.949Z,506
2022-09-15T01:42:51.430Z,505
2022-09-15T01:43:54.916Z,505
2022-09-15T01:45:07.469Z,502
2022-09-15T01:46:20.894Z,504
2022-09-15T01:47:23.432Z,502
2022-09-15T01:48:36.902Z,500
2022-09-15T01:49:49.376Z,497
2022-09-15T01:51:03.894Z,495
2022-09-15T01:52:06.443Z,496
2022-09-15T01:53:19.961Z,493
2022-09-15T01:54:22.683Z,492
2022-09-15T01:55:35.997Z,489
2022-09-15T01:56:48.454Z,488
2022-09-15T01:58:01.875Z,487
2022-09-15T01:59:04.414Z,487
2022-09-15T02:00:17.905Z,489
2022-09-15T02:01:30.429Z,490
2022-09-15T02:02:33.940Z,489
2022-09-15T02:03:46.556Z,488
2022-09-15T02:04:59.902Z,484
2022-09-15T02:06:02.486Z,484
2022-09-15T02:07:15.916Z,484
2022-09-15T02:08:28.410Z,482
2022-09-15T02:09:41.903Z,482
2022-09-15T02:10:44.454Z,481
2022-09-15T02:11:57.926Z,483
2022-09-15T02:13:10.417Z,484
2022-09-15T02:14:13.905Z,485
2022-09-15T02:15:26.434Z,486
2022-09-15T02:16:40.135Z,488
2022-09-15T02:17:42.869Z,488
2022-09-15T02:18:56.434Z,489
2022-09-15T02:20:08.939Z,486
2022-09-15T02:21:22.430Z,485
2022-09-15T02:22:25.019Z,485
2022-09-15T02:23:38.399Z,486
2022-09-15T02:24:50.862Z,487
2022-09-15T02:25:54.398Z,487
2022-09-15T02:27:06.929Z,488
2022-09-15T02:28:20.414Z,484
2022-09-15T02:29:23.056Z,483
2022-09-15T02:30:55.889Z,483
2022-09-15T02:31:48.618Z,483
2022-09-15T02:32:51.373Z,479
2022-09-15T02:34:04.951Z,488
2022-09-15T02:35:17.426Z,497
2022-09-15T02:36:30.888Z,517
2022-09-15T02:38:52.800Z,577
2022-09-15T02:39:55.562Z,595
2022-09-15T02:41:08.889Z,598
2022-09-15T02:42:11.429Z,607
2022-09-15T02:44:52.768Z,628
2022-09-15T02:45:45.444Z,638
2022-09-15T02:46:58.821Z,642
2022-09-15T02:48:01.357Z,645
2022-09-15T02:49:14.817Z,644
2022-09-15T02:50:27.289Z,647
2022-09-15T02:51:40.804Z,643
2022-09-15T02:52:43.450Z,640
2022-09-15T02:53:56.823Z,640
2022-09-15T02:55:09.465Z,638
2022-09-15T02:56:12.849Z,631
2022-09-15T02:57:25.287Z,622
2022-09-15T02:58:38.802Z,609
2022-09-15T02:59:41.342Z,602
2022-09-15T03:00:54.830Z,593
2022-09-15T03:02:07.431Z,583
2022-09-15T03:03:20.815Z,577
2022-09-15T03:04:23.349Z,571
2022-09-15T03:05:36.833Z,570
2022-09-15T03:06:49.293Z,564
2022-09-15T03:07:52.838Z,558
2022-09-15T03:09:05.312Z,554
2022-09-15T03:10:18.799Z,553
2022-09-15T03:11:21.354Z,546
2022-09-15T03:12:34.818Z,543
2022-09-15T03:13:47.681Z,541
2022-09-15T03:14:50.864Z,542
2022-09-15T03:16:03.363Z,544
2022-09-15T03:17:16.809Z,544
2022-09-15T03:18:29.263Z,547
2022-09-15T03:19:32.813Z,545
2022-09-15T03:20:45.286Z,547
2022-09-15T03:22:00.831Z,546
2022-09-15T03:23:03.369Z,544
2022-09-15T03:24:16.822Z,542
2022-09-15T03:25:29.289Z,542
2022-09-15T03:26:32.847Z,541
2022-09-15T03:27:45.310Z,539
2022-09-15T03:28:58.873Z,541
2022-09-15T03:30:01.861Z,539
2022-09-15T03:31:15.337Z,539
2022-09-15T03:32:27.861Z,536
2022-09-15T03:33:31.302Z,535
2022-09-15T03:34:43.765Z,533
2022-09-15T03:35:56.838Z,530
2022-09-15T03:36:59.423Z,527
2022-09-15T03:38:12.855Z,525
2022-09-15T03:39:25.422Z,523
2022-09-15T03:40:38.851Z,521
2022-09-15T03:41:41.530Z,519
2022-09-15T03:42:54.836Z,517
2022-09-15T03:44:07.328Z,516
2022-09-15T03:45:10.834Z,512
2022-09-15T03:46:23.313Z,513
2022-09-15T03:47:36.845Z,518
2022-09-15T03:48:39.413Z,520
2022-09-15T03:49:52.832Z,523
2022-09-15T03:51:05.383Z,523
2022-09-15T03:52:08.814Z,527
2022-09-15T03:53:21.511Z,528
2022-09-15T03:54:34.834Z,530
2022-09-15T03:55:37.368Z,534
2022-09-15T03:56:51.044Z,537
2022-09-15T03:58:03.535Z,541
2022-09-15T04:00:34.415Z,546
2022-09-15T04:01:27.197Z,548
2022-09-15T04:02:40.423Z,548
2022-09-15T04:03:52.957Z,546
2022-09-15T04:06:23.157Z,542
2022-09-15T04:07:25.689Z,545
2022-09-15T04:08:28.897Z,541
2022-09-15T04:09:41.393Z,539
2022-09-15T04:10:54.771Z,538
2022-09-15T04:11:57.327Z,534
2022-09-15T04:13:10.778Z,532
2022-09-15T04:14:23.324Z,537
2022-09-15T04:15:27.711Z,557
2022-09-15T04:16:40.377Z,603
2022-09-15T04:17:54.278Z,705
2022-09-15T04:18:56.827Z,706
2022-09-15T04:20:10.297Z,696
2022-09-15T04:21:22.786Z,678
2022-09-15T04:22:36.316Z,677
2022-09-15T04:23:38.934Z,678
2022-09-15T04:24:52.266Z,684
2022-09-15T04:26:04.741Z,709
2022-09-15T04:27:08.312Z,728
2022-09-15T04:28:21.269Z,732
2022-09-15T04:29:35.316Z,741
2022-09-15T04:30:37.961Z,754
2022-09-15T04:31:51.335Z,759
2022-09-15T04:33:03.908Z,761
2022-09-15T04:34:07.316Z,766
2022-09-15T04:35:19.820Z,766
2022-09-15T04:36:33.310Z,768
2022-09-15T04:37:35.895Z,771
2022-09-15T04:38:49.283Z,775
2022-09-15T04:40:01.835Z,774
2022-09-15T04:41:15.330Z,773
2022-09-15T04:42:17.895Z,774
2022-09-15T04:43:31.302Z,772
2022-09-15T04:44:43.881Z,769
2022-09-15T04:45:47.828Z,770
2022-09-15T04:47:00.449Z,772
2022-09-15T04:48:13.809Z,771
2022-09-15T04:49:16.656Z,771
2022-09-15T04:50:30.302Z,771
2022-09-15T04:51:42.802Z,772
2022-09-15T04:52:56.321Z,770
2022-09-15T04:53:58.990Z,770
2022-09-15T04:55:12.315Z,771
2022-09-15T04:56:34.259Z,769
2022-09-15T04:57:28.000Z,773
2022-09-15T04:58:40.544Z,774
2022-09-15T05:00:03.956Z,773
2022-09-15T05:00:56.745Z,774
2022-09-15T05:02:19.829Z,776
2022-09-15T05:03:22.472Z,774
2022-09-15T05:04:35.913Z,773
2022-09-15T05:05:58.257Z,770
2022-09-15T05:06:51.826Z,765
2022-09-15T05:08:04.274Z,762
2022-09-15T05:09:10.433Z,760
2022-09-15T05:10:23.188Z,757
2022-09-15T05:11:36.287Z,759
2022-09-15T05:12:38.946Z,762
2022-09-15T05:13:52.368Z,759
2022-09-15T05:15:05.174Z,759
2022-09-15T05:16:08.430Z,762
2022-09-15T05:17:25.030Z,763
2022-09-15T05:18:30.267Z,762
2022-09-15T05:19:42.672Z,767
2022-09-15T05:20:55.824Z,769
2022-09-15T05:21:58.246Z,773
2022-09-15T05:23:31.308Z,772
2022-09-15T05:24:43.327Z,772
2022-09-15T05:25:36.830Z,773
2022-09-15T05:26:39.178Z,774
2022-09-15T05:27:52.334Z,772
2022-09-15T05:29:24.233Z,771
2022-09-15T05:30:32.704Z,767
2022-09-15T05:31:28.543Z,767
2022-09-15T05:32:41.319Z,764
2022-09-15T05:33:43.594Z,762
2022-09-15T05:34:46.817Z,756
2022-09-15T05:35:58.972Z,749
2022-09-15T05:37:11.813Z,741
2022-09-15T05:38:24.163Z,727
2022-09-15T05:39:27.337Z,711
2022-09-15T05:40:39.535Z,700
2022-09-15T05:41:52.285Z,691
2022-09-15T05:43:04.409Z,684
2022-09-15T05:44:07.311Z,676
2022-09-15T05:45:19.598Z,666
2022-09-15T05:46:32.397Z,658
2022-09-15T05:47:34.863Z,651
2022-09-15T05:49:07.449Z,650
2022-09-15T05:50:00.074Z,645
2022-09-15T05:51:12.792Z,638
2022-09-15T05:52:15.101Z,638
2022-09-15T05:53:28.097Z,628
2022-09-15T05:54:41.657Z,623
2022-09-15T05:55:44.842Z,621
2022-09-15T05:56:56.999Z,617
2022-09-15T05:58:09.799Z,610
2022-09-15T05:59:41.812Z,604
2022-09-15T06:00:25.293Z,600
2022-09-15T06:01:37.485Z,599
2022-09-15T06:02:50.376Z,595
2022-09-15T06:04:02.671Z,590
2022-09-15T06:05:05.829Z,587
2022-09-15T06:06:18.055Z,584
2022-09-15T06:07:30.810Z,584
2022-09-15T06:08:33.011Z,584
2022-09-15T06:09:55.811Z,579
2022-09-15T06:10:58.013Z,574
2022-09-15T06:12:10.788Z,572
2022-09-15T06:13:13.067Z,569
2022-09-15T06:14:25.817Z,566
2022-09-15T06:15:37.901Z,565
2022-09-15T06:16:50.828Z,560
2022-09-15T06:17:53.028Z,555
2022-09-15T06:19:05.825Z,551
2022-09-15T06:20:18.094Z,549
2022-09-15T06:21:30.824Z,544
2022-09-15T06:22:33.054Z,543
2022-09-15T06:23:50.509Z,538
2022-09-15T06:24:53.195Z,537
2022-09-15T06:26:15.840Z,537
2022-09-15T06:27:18.141Z,535
2022-09-15T06:28:21.325Z,533
2022-09-15T06:29:33.470Z,531
2022-09-15T06:30:46.318Z,528
2022-09-15T06:31:58.469Z,528
2022-09-15T06:33:01.834Z,524
2022-09-15T06:34:14.190Z,523
2022-09-15T06:35:27.931Z,520
2022-09-15T06:36:30.242Z,518
2022-09-15T06:37:43.354Z,517
2022-09-15T06:38:55.583Z,516
2022-09-15T06:40:08.426Z,516
2022-09-15T06:41:10.819Z,514
2022-09-15T06:42:23.874Z,513
2022-09-15T06:43:35.968Z,511
2022-09-15T06:44:39.322Z,510
2022-09-15T06:45:51.497Z,509
2022-09-15T06:47:04.847Z,507
2022-09-15T06:48:23.594Z,505
2022-09-15T06:49:17.859Z,503
2022-09-15T06:50:30.012Z,502
2022-09-15T06:51:42.871Z,501
2022-09-15T06:52:54.961Z,499
2022-09-15T06:53:57.833Z,498
2022-09-15T06:55:10.069Z,497
2022-09-15T06:56:23.340Z,496
2022-09-15T06:57:25.546Z,496
2022-09-15T06:58:38.310Z,497
2022-09-15T06:59:50.442Z,496
2022-09-15T07:01:03.341Z,500
2022-09-15T07:02:05.583Z,503
2022-09-15T07:03:18.911Z,501
2022-09-15T07:04:31.206Z,500
2022-09-15T07:05:43.818Z,502
2022-09-15T07:06:46.147Z,500
2022-09-15T07:07:58.810Z,500
2022-09-15T07:09:10.872Z,498
2022-09-15T07:10:23.851Z,495
2022-09-15T07:11:26.077Z,497
2022-09-15T07:12:38.843Z,496
2022-09-15T07:13:50.975Z,494
2022-09-15T07:14:53.871Z,493
2022-09-15T07:16:06.070Z,490
2022-09-15T07:17:18.835Z,488
2022-09-15T07:18:30.969Z,486
2022-09-15T07:19:33.867Z,487
2022-09-15T07:20:46.000Z,488
2022-09-15T07:22:18.351Z,487
2022-09-15T07:23:10.827Z,483
2022-09-15T07:24:13.016Z,485
2022-09-15T07:25:25.855Z,485
2022-09-15T07:26:37.982Z,486
2022-09-15T07:27:50.855Z,484
2022-09-15T07:28:52.902Z,484
2022-09-15T07:30:05.862Z,485
2022-09-15T07:31:18.020Z,483
2022-09-15T07:32:30.830Z,482
2022-09-15T07:33:33.029Z,481
2022-09-15T07:34:45.845Z,480
2022-09-15T07:35:57.912Z,478
2022-09-15T07:37:00.851Z,480
2022-09-15T07:38:12.978Z,479
2022-09-15T07:39:25.843Z,475
2022-09-15T07:40:37.994Z,476
2022-09-15T07:41:41.377Z,476
2022-09-15T07:42:53.549Z,477
2022-09-15T07:44:06.465Z,477
2022-09-15T07:45:18.734Z,476
2022-09-15T07:46:21.831Z,475
2022-09-15T07:47:33.950Z,476
2022-09-15T07:48:46.843Z,475
2022-09-15T07:49:49.192Z,472
2022-09-15T07:51:02.356Z,471
2022-09-15T07:52:14.498Z,471
2022-09-15T07:53:27.331Z,467
2022-09-15T07:54:29.585Z,467
2022-09-15T07:55:42.337Z,465
2022-09-15T07:56:54.425Z,465
2022-09-15T07:58:07.377Z,464
2022-09-15T07:59:09.642Z,464
2022-09-15T08:00:22.391Z,462
2022-09-15T08:01:34.715Z,460
2022-09-15T08:02:37.819Z,460
2022-09-15T08:03:49.889Z,460
2022-09-15T08:05:02.839Z,457
2022-09-15T08:06:14.951Z,455
2022-09-15T08:07:17.884Z,455
2022-09-15T08:08:29.988Z,456
2022-09-15T08:09:42.833Z,455
2022-09-15T08:11:04.714Z,456
2022-09-15T08:11:57.872Z,454
2022-09-15T08:13:09.966Z,453
2022-09-15T08:14:22.826Z,452
2022-09-15T08:15:25.002Z,453
2022-09-15T08:16:37.965Z,454
2022-09-15T08:17:50.214Z,452
2022-09-15T08:19:02.861Z,452
2022-09-15T08:20:05.125Z,453
2022-09-15T08:21:17.841Z,451
2022-09-15T08:22:29.953Z,451
2022-09-15T08:23:42.860Z,450
2022-09-15T08:24:45.041Z,450
2022-09-15T08:25:57.847Z,450
2022-09-15T08:27:09.935Z,450
2022-09-15T08:28:22.889Z,446
2022-09-15T08:29:25.290Z,444
2022-09-15T08:30:38.375Z,442
2022-09-15T08:31:50.484Z,440
2022-09-15T08:32:53.869Z,441
2022-09-15T08:34:05.887Z,440
2022-09-15T08:35:18.841Z,440
2022-09-15T08:36:30.931Z,440
2022-09-15T08:37:33.853Z,439
2022-09-15T08:38:45.878Z,437
2022-09-15T08:39:59.002Z,437
2022-09-15T08:41:11.175Z,437
2022-09-15T08:42:14.338Z,437
2022-09-15T08:43:26.403Z,437
2022-09-15T08:44:39.359Z,438
2022-09-15T08:45:51.330Z,437
2022-09-15T08:46:54.399Z,439
2022-09-15T08:48:06.497Z,440
2022-09-15T08:49:35.445Z,438
2022-09-15T08:50:20.457Z,439
2022-09-15T08:51:32.533Z,439
2022-09-15T08:52:45.364Z,438
2022-09-15T08:53:57.319Z,438
2022-09-15T08:55:00.343Z,439
2022-09-15T08:56:12.363Z,438
2022-09-15T08:57:25.357Z,438
2022-09-15T08:58:37.403Z,437
2022-09-15T08:59:40.392Z,436
2022-09-15T09:00:52.426Z,435
2022-09-15T09:02:05.457Z,432
2022-09-15T09:03:17.621Z,435
2022-09-15T09:04:20.359Z,434
2022-09-15T09:05:32.405Z,431
2022-09-15T09:06:45.395Z,431
2022-09-15T09:07:47.517Z,433
2022-09-15T09:09:00.394Z,432
2022-09-15T09:10:12.455Z,431
2022-09-15T09:11:25.357Z,431
2022-09-15T09:12:27.538Z,428
2022-09-15T09:13:40.360Z,429
2022-09-15T09:15:02.263Z,432
2022-09-15T09:16:05.479Z,434
2022-09-15T09:17:07.732Z,433
2022-09-15T09:18:20.347Z,435
2022-09-15T09:19:32.515Z,435
2022-09-15T09:20:35.857Z,436
2022-09-15T09:21:47.894Z,435
2022-09-15T09:23:00.882Z,434
2022-09-15T09:24:12.847Z,436
2022-09-15T09:25:26.752Z,438
2022-09-15T09:26:30.147Z,436
2022-09-15T09:27:42.864Z,438
2022-09-15T09:28:45.068Z,438
2022-09-15T09:29:57.907Z,438
2022-09-15T09:31:10.125Z,436
2022-09-15T09:32:22.873Z,437
2022-09-15T09:33:25.042Z,437
2022-09-15T09:34:37.869Z,437
2022-09-15T09:35:49.911Z,436
2022-09-15T09:36:52.889Z,435
2022-09-15T09:38:04.953Z,435
2022-09-15T09:39:17.868Z,435
2022-09-15T09:40:29.985Z,436
2022-09-15T09:41:32.901Z,432
2022-09-15T09:42:44.940Z,431
2022-09-15T09:43:57.870Z,429
2022-09-15T09:45:09.904Z,429
2022-09-15T09:46:13.205Z,428
2022-09-15T09:47:26.079Z,426
2022-09-15T09:48:38.920Z,424
2022-09-15T09:49:41.304Z,423
2022-09-15T09:50:54.424Z,420
2022-09-15T09:52:06.497Z,420
2022-09-15T09:53:19.373Z,421
2022-09-15T09:54:21.497Z,421
2022-09-15T09:55:34.391Z,421
2022-09-15T09:56:46.453Z,421
2022-09-15T09:57:59.396Z,420
2022-09-15T09:59:01.576Z,419
2022-09-15T10:00:14.555Z,420
2022-09-15T10:01:26.822Z,417
2022-09-15T10:02:29.868Z,418
2022-09-15T10:03:41.900Z,417
2022-09-15T10:04:55.055Z,417
2022-09-15T10:06:07.183Z,419
2022-09-15T10:07:09.896Z,422
2022-09-15T10:08:21.925Z,421
2022-09-15T10:09:34.902Z,422
2022-09-15T10:10:37.123Z,423
2022-09-15T10:11:50.028Z,426
2022-09-15T10:13:02.112Z,426
2022-09-15T10:14:14.913Z,429
2022-09-15T10:15:17.137Z,429
2022-09-15T10:16:29.979Z,430
2022-09-15T10:17:42.083Z,435
2022-09-15T10:18:55.009Z,435
2022-09-15T10:19:57.354Z,438
2022-09-15T10:21:10.389Z,438
2022-09-15T10:22:22.553Z,440
2022-09-15T10:23:25.912Z,442
2022-09-15T10:24:47.393Z,444
2022-09-15T10:25:59.006Z,446
2022-09-15T10:27:02.085Z,447
2022-09-15T10:28:04.910Z,447
2022-09-15T10:29:16.985Z,446
2022-09-15T10:30:29.880Z,445
2022-09-15T10:31:42.024Z,444
2022-09-15T10:32:44.923Z,444
2022-09-15T10:34:16.791Z,445
2022-09-15T10:35:09.872Z,445
2022-09-15T10:36:21.933Z,446
2022-09-15T10:37:24.915Z,445
2022-09-15T10:38:36.884Z,445
2022-09-15T10:39:49.959Z,444
2022-09-15T10:40:52.253Z,444
2022-09-15T10:42:06.410Z,445
2022-09-15T10:43:18.437Z,446
2022-09-15T10:44:31.493Z,446
2022-09-15T10:45:33.748Z,446
2022-09-15T10:46:46.917Z,444
2022-09-15T10:47:58.957Z,443
2022-09-15T10:49:01.904Z,442
2022-09-15T10:50:14.232Z,442
2022-09-15T10:51:26.923Z,440
2022-09-15T10:52:38.971Z,439
2022-09-15T10:53:41.983Z,437
2022-09-15T10:54:54.120Z,438
2022-09-15T10:56:06.990Z,437
2022-09-15T10:57:09.182Z,436
2022-09-15T10:58:22.986Z,435
2022-09-15T11:00:04.645Z,435
2022-09-15T11:00:48.003Z,431
2022-09-15T11:01:50.379Z,432
2022-09-15T11:03:03.393Z,434
2022-09-15T11:04:15.337Z,433
2022-09-15T11:05:21.942Z,433
2022-09-15T11:06:34.923Z,432
2022-09-15T11:07:37.905Z,434
2022-09-15T11:08:50.286Z,434
2022-09-15T11:10:03.095Z,433
2022-09-15T11:11:15.088Z,436
2022-09-15T11:12:20.246Z,436
2022-09-15T11:13:33.178Z,436
2022-09-15T11:14:46.197Z,438
2022-09-15T11:15:48.492Z,437
2022-09-15T11:17:01.600Z,438
2022-09-15T11:18:13.634Z,437
2022-09-15T11:19:17.201Z,435
2022-09-15T11:20:29.169Z,434
2022-09-15T11:21:41.952Z,432
2022-09-15T11:22:49.290Z,430
2022-09-15T11:24:02.420Z,431
2022-09-15T11:25:04.628Z,431
2022-09-15T11:26:17.445Z,429
2022-09-15T11:27:29.460Z,430
2022-09-15T11:28:42.411Z,430
2022-09-15T11:29:45.009Z,432
2022-09-15T11:30:57.968Z,432
2022-09-15T11:32:09.939Z,432
2022-09-15T11:33:22.495Z,432
2022-09-15T11:34:33.957Z,430
2022-09-15T11:35:36.941Z,429
2022-09-15T11:36:48.833Z,431
2022-09-15T11:38:01.416Z,429
2022-09-15T11:39:03.713Z,429
2022-09-15T11:40:16.503Z,430
2022-09-15T11:41:28.898Z,431
2022-09-15T11:42:31.910Z,432
2022-09-15T11:43:45.194Z,429
2022-09-15T11:44:54.200Z,427
2022-09-15T11:46:06.255Z,428
2022-09-15T11:47:49.514Z,429
2022-09-15T11:48:22.180Z,427
2022-09-15T11:50:04.412Z,428
2022-09-15T11:50:46.895Z,426
2022-09-15T11:51:58.863Z,425
2022-09-15T11:53:01.929Z,426
2022-09-15T11:54:14.357Z,424
2022-09-15T11:55:28.154Z,425
2022-09-15T11:56:30.341Z,424
2022-09-15T11:57:42.958Z,424
2022-09-15T11:58:55.016Z,421
2022-09-15T12:00:07.974Z,421
2022-09-15T12:01:10.176Z,419
2022-09-15T12:02:23.082Z,421
2022-09-15T12:03:35.267Z,423
2022-09-15T12:04:47.919Z,425
2022-09-15T12:05:50.115Z,426
2022-09-15T12:07:02.964Z,427
2022-09-15T12:08:14.989Z,427
2022-09-15T12:09:17.968Z,427
2022-09-15T12:10:29.975Z,427
2022-09-15T12:11:42.959Z,427
2022-09-15T12:12:55.004Z,428
2022-09-15T12:13:57.944Z,429
2022-09-15T12:15:09.991Z,429
2022-09-15T12:16:22.954Z,429
2022-09-15T12:17:35.039Z,428
2022-09-15T12:18:40.141Z,429
2022-09-15T12:19:54.048Z,427
2022-09-15T12:20:56.955Z,426
2022-09-15T12:22:09.022Z,425
2022-09-15T12:23:21.937Z,427
2022-09-15T12:24:33.993Z,430
2022-09-15T12:25:36.960Z,428
2022-09-15T12:26:49.023Z,431
2022-09-15T12:28:01.966Z,433
2022-09-15T12:29:14.159Z,433
2022-09-15T12:30:16.965Z,432
2022-09-15T12:31:28.998Z,433
2022-09-15T12:32:41.965Z,437
2022-09-15T12:33:44.103Z,438
2022-09-15T12:34:56.946Z,435
2022-09-15T12:36:08.977Z,435
2022-09-15T12:37:21.997Z,434
2022-09-15T12:38:24.182Z,434
2022-09-15T12:39:36.941Z,435
2022-09-15T12:40:48.990Z,436
2022-09-15T12:42:01.966Z,436
2022-09-15T12:43:04.188Z,437
2022-09-15T12:44:16.963Z,435
2022-09-15T12:45:28.968Z,436
2022-09-15T12:46:42.133Z,436
2022-09-15T12:47:44.299Z,436
2022-09-15T12:48:56.975Z,434
2022-09-15T12:50:08.927Z,433
2022-09-15T12:51:11.967Z,432
2022-09-15T12:52:24.037Z,434
2022-09-15T12:53:36.945Z,435
2022-09-15T12:54:48.968Z,435
2022-09-15T12:55:51.947Z,436
2022-09-15T12:57:03.991Z,436
2022-09-15T12:58:17.457Z,435
2022-09-15T12:59:29.465Z,433
2022-09-15T13:00:32.451Z,432
2022-09-15T13:01:44.526Z,431
2022-09-15T13:02:58.020Z,434
2022-09-15T13:04:00.668Z,434
2022-09-15T13:05:23.472Z,434
2022-09-15T13:06:25.625Z,435
2022-09-15T13:07:38.462Z,434
2022-09-15T13:08:40.559Z,433
2022-09-15T13:09:53.526Z,433
2022-09-15T13:11:06.178Z,434
2022-09-15T13:12:10.320Z,434
2022-09-15T13:13:22.256Z,435
2022-09-15T13:14:34.969Z,434
2022-09-15T13:15:37.151Z,434
2022-09-15T13:17:09.459Z,435
2022-09-15T13:18:01.772Z,435
2022-09-15T13:19:14.456Z,434
2022-09-15T13:20:16.598Z,436
2022-09-15T13:21:29.541Z,435
2022-09-15T13:22:42.319Z,435
2022-09-15T13:23:55.051Z,432
2022-09-15T13:25:00.774Z,432
2022-09-15T13:26:14.494Z,434
2022-09-15T13:27:16.614Z,432
2022-09-15T13:28:29.490Z,434
2022-09-15T13:29:41.449Z,434
2022-09-15T13:30:54.020Z,434
2022-09-15T13:31:56.292Z,434
2022-09-15T13:33:08.986Z,435
2022-09-15T13:35:33.979Z,434
2022-09-15T13:38:20.112Z,434
2022-09-15T13:39:13.971Z,434
2022-09-15T13:40:06.400Z,435
2022-09-15T13:41:19.477Z,435
2022-09-15T13:42:31.443Z,437
2022-09-15T13:43:37.462Z,437
2022-09-15T13:44:43.081Z,436
2022-09-15T13:45:56.320Z,437
2022-09-15T13:47:08.390Z,434
2022-09-15T13:49:37.911Z,436
2022-09-15T13:50:49.748Z,434
2022-09-15T13:51:43.406Z,436
2022-09-15T13:52:55.395Z,437
2022-09-15T13:54:07.958Z,439
2022-09-15T13:55:10.145Z,439
2022-09-15T13:56:22.965Z,438
2022-09-15T13:59:00.184Z,440
2022-09-15T13:59:56.513Z,441
2022-09-15T14:01:09.462Z,443
2022-09-15T14:02:11.904Z,444
2022-09-15T14:03:24.907Z,446
2022-09-15T14:04:36.857Z,445
2022-09-15T14:05:39.958Z,448
2022-09-15T14:06:52.293Z,451
2022-09-15T14:08:05.926Z,451
2022-09-15T14:09:08.021Z,452
2022-09-15T14:10:20.930Z,452
2022-09-15T14:11:33.150Z,455
2022-09-15T14:12:45.954Z,457
2022-09-15T14:13:48.150Z,457
2022-09-15T14:15:00.971Z,458
2022-09-15T14:16:13.055Z,458
2022-09-15T14:17:16.467Z,460
2022-09-15T14:18:28.698Z,461
2022-09-15T14:19:41.464Z,461
2022-09-15T14:20:53.481Z,465
2022-09-15T14:21:58.674Z,466
2022-09-15T14:23:11.047Z,469
2022-09-15T14:24:15.479Z,476
2022-09-15T14:25:27.499Z,486
2022-09-15T14:26:40.504Z,502
2022-09-15T14:27:52.520Z,557
2022-09-15T14:28:55.455Z,562
2022-09-15T14:30:07.407Z,572
2022-09-15T14:31:20.543Z,577
2022-09-15T14:32:22.738Z,582
2022-09-15T14:33:38.157Z,582
2022-09-15T14:34:57.902Z,587
2022-09-15T14:35:57.009Z,583
2022-09-15T14:37:51.120Z,582
2022-09-15T14:38:38.051Z,578
2022-09-15T14:39:40.819Z,578
2022-09-15T14:40:37.674Z,576
2022-09-15T14:41:51.021Z,575
2022-09-15T14:43:03.198Z,575
2022-09-15T14:45:52.926Z,572
2022-09-15T14:45:57.546Z,569
2022-09-15T14:46:25.819Z,567
2022-09-15T14:47:38.101Z,568
2022-09-15T14:48:40.978Z,565
2022-09-15T14:49:53.970Z,560
2022-09-15T14:51:06.958Z,560
2022-09-15T14:52:09.195Z,558
2022-09-15T14:53:50.986Z,556
2022-09-15T14:54:33.526Z,555
2022-09-15T14:55:45.512Z,553
2022-09-15T14:56:58.965Z,551
2022-09-15T14:58:11.216Z,549
2022-09-15T14:59:14.011Z,548
2022-09-15T15:00:26.041Z,544
2022-09-15T15:01:29.087Z,543
2022-09-15T15:02:41.258Z,544
2022-09-15T15:03:54.552Z,545
2022-09-15T15:04:56.598Z,544
2022-09-15T15:06:28.323Z,543
2022-09-15T15:07:21.686Z,544
2022-09-15T15:08:34.483Z,541
2022-09-15T15:09:56.078Z,540
2022-09-15T15:10:49.293Z,538
2022-09-15T15:12:01.392Z,538
2022-09-15T15:13:14.471Z,537
2022-09-15T15:14:16.756Z,536
2022-09-15T15:15:30.543Z,534
2022-09-15T15:16:52.295Z,533
2022-09-15T15:17:45.463Z,534
2022-09-15T15:18:57.488Z,533
2022-09-15T15:20:10.664Z,531
2022-09-15T15:21:23.807Z,529
2022-09-15T15:22:36.668Z,527
2022-09-15T15:23:42.210Z,526
2022-09-15T15:24:47.500Z,527
2022-09-15T15:25:59.734Z,528
2022-09-15T15:27:22.096Z,526
2022-09-15T15:28:14.429Z,523
2022-09-15T15:29:27.462Z,520
2022-09-15T15:30:39.407Z,518
2022-09-15T15:31:52.554Z,517
2022-09-15T15:32:54.781Z,516
2022-09-15T15:34:07.481Z,516
2022-09-15T15:35:19.511Z,515
2022-09-15T15:36:22.662Z,516
2022-09-15T15:37:34.714Z,519
2022-09-15T15:38:47.698Z,520
2022-09-15T15:39:59.849Z,516
2022-09-15T15:41:02.972Z,515
2022-09-15T15:42:15.202Z,515
2022-09-15T15:43:28.771Z,513
2022-09-15T15:44:31.011Z,512
2022-09-15T15:45:44.063Z,512
2022-09-15T15:46:56.189Z,509
2022-09-15T15:48:08.970Z,507
2022-09-15T15:49:11.253Z,506
2022-09-15T15:50:23.984Z,504
2022-09-15T15:51:36.962Z,501
2022-09-15T15:52:39.986Z,498
2022-09-15T15:53:51.886Z,498
2022-09-15T15:55:04.462Z,497
2022-09-15T15:56:25.927Z,497
2022-09-15T15:57:28.975Z,497
2022-09-15T15:58:31.107Z,496
2022-09-15T15:59:43.986Z,495
2022-09-15T16:00:56.103Z,494
2022-09-15T16:01:59.022Z,492
2022-09-15T16:03:11.252Z,492
2022-09-15T16:04:24.015Z,494
2022-09-15T16:05:36.072Z,493
2022-09-15T16:06:39.007Z,492
2022-09-15T16:07:51.086Z,491
2022-09-15T16:09:03.998Z,491
2022-09-15T16:10:16.027Z,493
2022-09-15T16:11:18.983Z,492